Time;durP1;ratioP1;P1;durP2;ratioP2;P2;SDS_P1;SDS_P2;PMS_P1;PMS_P2;Temp;Humidity;BMP_temperature;BMP_pressure;BME280_temperature;BME280_humidity;BME280_pressure;Samples;Min_cycle;Max_cycle;Signal;HPM_P1;HPM_P2
2022/01/21 00:00:35;;;;;;;14.35;2.20;;;;;;;3.94;75.37;102795.44;5074353;28;20088;-53
2022/01/21 00:03:04;;;;;;;11.88;4.72;;;;;;;4.01;75.72;102794.56;5074053;28;20056;-53
2022/01/21 00:05:32;;;;;;;11.05;3.38;;;;;;;4.06;75.97;102795.44;5074657;28;20058;-53
2022/01/21 00:08:00;;;;;;;14.43;3.55;;;;;;;4.04;76.53;102808.56;5074137;28;20064;-53
2022/01/21 00:10:29;;;;;;;8.65;2.25;;;;;;;4.12;76.79;102805.06;5074241;28;20052;-53
2022/01/21 00:12:58;;;;;;;13.73;2.28;;;;;;;4.09;76.86;102805.97;5074011;28;20503;-53
2022/01/21 00:15:27;;;;;;;10.73;3.55;;;;;;;4.16;76.30;102810.34;5073732;28;20057;-53
2022/01/21 00:17:55;;;;;;;23.95;2.33;;;;;;;4.15;76.48;102812.97;5074381;28;20056;-53
2022/01/21 00:31:32;;;;;;;16.02;4.43;;;;;;;4.16;78.20;102814.72;5035214;28;20061;-53
2022/01/21 00:34:00;;;;;;;12.23;2.78;;;;;;;4.13;77.39;102817.34;5074658;28;20052;-53
2022/01/21 00:36:28;;;;;;;11.75;2.38;;;;;;;4.15;77.05;102810.34;5074652;28;20057;-53
2022/01/21 00:38:57;;;;;;;15.77;3.05;;;;;;;4.12;76.63;102810.31;5074229;28;20062;-53
2022/01/21 00:41:29;;;;;;;22.50;3.65;;;;;;;4.03;75.88;102806.81;5074295;28;20072;-53
2022/01/21 00:43:59;;;;;;;12.75;2.55;;;;;;;4.00;75.99;102809.44;5073435;28;20057;-53
2022/01/21 00:46:27;;;;;;;17.42;2.72;;;;;;;3.96;75.74;102807.69;5073411;28;20064;-53
2022/01/21 00:48:56;;;;;;;9.40;2.40;;;;;;;3.95;76.34;102808.56;5074111;28;20060;-53
2022/01/21 00:51:24;;;;;;;18.45;2.58;;;;;;;3.95;76.06;102798.06;5073539;28;20064;-53
2022/01/21 00:53:52;;;;;;;11.05;3.03;;;;;;;4.00;75.45;102796.31;5074069;28;20415;-53
2022/01/21 00:56:20;;;;;;;7.35;1.90;;;;;;;3.99;75.62;102799.81;5074767;28;20057;-53
2022/01/21 00:58:49;;;;;;;6.78;1.50;;;;;;;4.04;76.24;102802.44;5074263;28;20056;-53
2022/01/21 01:01:24;;;;;;;7.10;1.90;;;;;;;4.05;76.09;102799.81;5074279;28;20060;-53
2022/01/21 01:03:52;;;;;;;8.90;1.98;;;;;;;4.03;76.20;102801.56;5078331;28;20053;-53
2022/01/21 01:06:20;;;;;;;15.90;2.05;;;;;;;4.06;76.24;102793.69;5077549;28;20052;-53
2022/01/21 01:08:51;;;;;;;7.88;1.80;;;;;;;4.04;76.75;102792.81;5077569;28;20056;-53
2022/01/21 01:11:27;;;;;;;7.65;1.92;;;;;;;4.07;76.81;102786.69;5076963;28;20558;-53
2022/01/21 01:22:15;;;;;;;11.35;2.17;;;;;;;4.03;76.17;102785.78;5077485;28;20064;-53
2022/01/21 01:27:41;;;;;;;12.27;2.05;;;;;;;4.04;76.17;102784.94;5077697;28;20057;-53
2022/01/21 01:30:12;;;;;;;5.95;1.60;;;;;;;4.03;76.20;102780.53;5076509;28;20061;-53
2022/01/21 01:32:43;;;;;;;10.37;2.30;;;;;;;4.04;76.38;102787.56;5077044;28;20056;-53
2022/01/21 01:35:13;;;;;;;8.20;1.73;;;;;;;4.03;76.14;102780.53;5077314;28;20294;-53
2022/01/21 01:40:30;;;;;;;14.25;1.95;;;;;;;4.03;75.54;102785.78;5076343;28;20057;-53
2022/01/21 01:49:22;;;;;;;13.02;1.70;;;;;;;4.05;74.90;102783.16;5076619;28;20060;-53
2022/01/21 01:51:25;;;;;;;11.60;1.88;;;;;;;4.25;73.46;102781.47;5077466;28;20408;-53
2022/01/21 01:53:55;;;;;;;8.40;1.58;;;;;;;4.26;73.28;102784.97;5076624;28;20053;-53
2022/01/21 01:56:27;;;;;;;15.32;2.28;;;;;;;4.38;73.27;102798.09;5076714;28;20057;-53
2022/01/21 01:58:55;;;;;;;9.43;1.52;;;;;;;4.30;73.78;102788.47;5076637;28;20072;-53
2022/01/21 02:01:23;;;;;;;4.95;1.25;;;;;;;4.25;74.07;102796.34;5076142;28;20061;-53
2022/01/21 02:03:53;;;;;;;7.10;1.52;;;;;;;4.26;74.57;102798.97;5076417;28;20052;-53
2022/01/21 02:06:22;;;;;;;7.70;2.05;;;;;;;4.29;74.48;102792.84;5076069;28;20057;-53
2022/01/21 02:08:51;;;;;;;7.95;1.42;;;;;;;4.28;74.62;102797.22;5076248;28;20056;-53
2022/01/21 02:11:19;;;;;;;16.60;1.98;;;;;;;4.30;74.51;102801.59;5076192;28;20412;-53
2022/01/21 02:13:55;;;;;;;4.68;1.23;;;;;;;4.25;74.14;102801.59;5075996;28;20060;-53
2022/01/21 02:16:36;;;;;;;14.43;1.75;;;;;;;4.16;74.30;102796.34;5075580;28;20071;-53
2022/01/21 02:21:53;;;;;;;9.23;1.52;;;;;;;4.19;74.07;102796.34;5075666;28;20056;-53
2022/01/21 02:24:25;;;;;;;8.82;1.50;;;;;;;4.17;74.12;102798.97;5075451;28;20053;-53
2022/01/21 02:26:53;;;;;;;;;;;;;;;4.19;73.43;102801.59;5075839;28;20060;-53
2022/01/21 02:29:29;;;;;;;4.18;1.08;;;;;;;4.17;73.59;102800.69;5075926;28;19927;-53
2022/01/21 02:31:58;;;;;;;6.57;1.27;;;;;;;4.12;72.58;102805.06;5076109;28;20488;-53
2022/01/21 02:34:26;;;;;;;5.95;1.20;;;;;;;4.08;73.52;102802.47;5076236;28;20062;-53
2022/01/21 02:36:56;;;;;;;8.43;1.23;;;;;;;4.12;73.15;102802.44;5075790;28;20053;-53
2022/01/21 02:39:24;;;;;;;6.50;1.25;;;;;;;4.08;72.40;102810.34;5075401;28;20504;-53
2022/01/21 02:41:52;;;;;;;5.15;1.60;;;;;;;4.03;72.65;102816.44;5075325;28;20424;-53
2022/01/21 02:44:20;;;;;;;6.57;1.10;;;;;;;4.02;72.27;102807.69;5075027;28;20059;-53
2022/01/21 02:46:54;;;;;;;2.90;1.00;;;;;;;3.98;69.73;102813.78;5075524;28;20508;-53
2022/01/21 02:49:23;;;;;;;5.78;1.00;;;;;;;3.94;70.74;102806.81;5075332;28;20118;-53
2022/01/21 02:51:53;;;;;;;2.95;0.73;;;;;;;3.90;70.47;102797.16;5075043;28;20063;-53
2022/01/21 02:54:22;;;;;;;7.72;1.00;;;;;;;3.93;70.49;102789.28;5075720;28;20415;-53
2022/01/21 02:56:51;;;;;;;10.15;1.08;;;;;;;3.95;70.13;102797.16;5075037;28;20508;-53
2022/01/21 02:59:19;;;;;;;5.57;1.15;;;;;;;3.91;69.96;102791.03;5075820;28;20392;-53
2022/01/21 03:01:49;;;;;;;5.55;0.98;;;;;;;3.93;69.45;102791.03;5076085;28;20087;-53
2022/01/21 03:04:24;;;;;;;10.27;1.15;;;;;;;3.90;70.28;102790.16;5074979;28;20052;-53
2022/01/21 03:06:53;;;;;;;6.80;1.88;;;;;;;3.87;69.73;102787.53;5076048;28;20052;-53
2022/01/21 03:09:23;;;;;;;6.25;1.05;;;;;;;3.87;69.58;102789.28;5074766;28;20060;-53
2022/01/21 03:11:51;;;;;;;4.68;0.90;;;;;;;3.79;70.11;102784.00;5074963;28;20056;-53
2022/01/21 03:14:19;;;;;;;5.30;1.10;;;;;;;3.79;70.62;102780.50;5074465;28;20056;-53
2022/01/21 03:16:47;;;;;;;6.85;0.93;;;;;;;3.82;70.64;102777.91;5074751;28;20053;-53
2022/01/21 03:19:16;;;;;;;4.95;1.00;;;;;;;3.84;71.15;102784.03;5075151;28;20454;-53
2022/01/21 03:21:44;;;;;;;2.67;0.80;;;;;;;3.81;69.90;102778.75;5074891;28;20052;-53
2022/01/21 03:24:12;;;;;;;6.75;1.23;;;;;;;3.83;69.30;102766.50;5073758;28;20064;-53
2022/01/21 03:26:42;;;;;;;7.47;0.80;;;;;;;3.85;69.83;102772.63;5074492;28;20057;-53
2022/01/21 03:29:10;;;;;;;3.47;1.10;;;;;;;3.84;69.69;102769.13;5074684;28;20062;-53
2022/01/21 03:31:39;;;;;;;3.03;1.00;;;;;;;3.85;69.52;102767.38;5074714;28;20053;-53
2022/01/21 03:34:07;;;;;;;4.43;0.80;;;;;;;3.84;69.67;102763.88;5074916;28;20439;-53
2022/01/21 03:36:36;;;;;;;4.07;1.10;;;;;;;3.87;69.89;102773.53;5074824;28;20057;-53
2022/01/21 03:39:04;;;;;;;3.45;0.90;;;;;;;3.88;69.96;102775.25;5074323;28;20107;-53
2022/01/21 03:41:33;;;;;;;3.88;0.85;;;;;;;3.90;70.31;102773.50;5074271;28;20052;-53
2022/01/21 03:44:02;;;;;;;4.63;1.00;;;;;;;3.88;70.20;102776.16;5074594;28;20061;-53
2022/01/21 03:46:30;;;;;;;4.75;0.68;;;;;;;3.88;70.74;102772.63;5074289;28;20056;-53
2022/01/21 03:48:59;;;;;;;5.70;0.88;;;;;;;3.85;70.50;102775.25;5074255;28;20067;-53
2022/01/21 03:51:27;;;;;;;4.03;0.88;;;;;;;3.80;70.98;102772.66;5075341;28;20060;-53
2022/01/21 03:53:55;;;;;;;5.63;1.02;;;;;;;3.83;71.28;102777.00;5074755;28;20067;-53
2022/01/21 03:56:24;;;;;;;4.57;1.15;;;;;;;3.86;71.08;102777.88;5075040;28;20048;-53
2022/01/21 03:58:52;;;;;;;4.57;1.08;;;;;;;3.90;71.30;102777.03;5074472;28;20522;-53
2022/01/21 04:01:24;;;;;;;8.18;1.15;;;;;;;3.91;71.03;102781.41;5074326;28;20071;-53
2022/01/21 04:03:52;;;;;;;3.65;1.08;;;;;;;3.92;71.55;102779.66;5074757;28;20074;-53
2022/01/21 04:06:21;;;;;;;4.60;0.93;;;;;;;3.87;71.76;102784.03;5075228;28;20068;-53
2022/01/21 04:08:49;;;;;;;8.90;1.30;;;;;;;3.88;72.39;102778.78;5074046;28;20056;-53
2022/01/21 04:11:17;;;;;;;4.35;1.10;;;;;;;3.83;72.39;102787.50;5073985;28;20052;-53
2022/01/21 04:13:46;;;;;;;9.25;1.48;;;;;;;3.82;72.68;102781.41;5073888;28;20061;-53
2022/01/21 04:16:14;;;;;;;5.55;1.23;;;;;;;3.80;72.99;102780.53;5073722;28;20056;-53
2022/01/21 04:18:44;;;;;;;8.57;1.20;;;;;;;3.77;73.42;102777.00;5073925;28;20056;-53
2022/01/21 04:21:12;;;;;;;6.22;1.17;;;;;;;3.79;73.81;102776.13;5073947;28;20063;-53
2022/01/21 04:23:40;;;;;;;4.07;0.70;;;;;;;3.81;74.25;102778.75;5074244;28;20064;-53
2022/01/21 04:26:09;;;;;;;9.23;1.00;;;;;;;3.84;74.34;102782.25;5073982;28;20056;-53
2022/01/21 04:28:37;;;;;;;11.40;2.70;;;;;;;3.80;74.20;102782.25;5074099;28;20414;-53
2022/01/21 04:31:05;;;;;;;5.30;0.98;;;;;;;3.82;73.89;102778.78;5074240;28;20059;-53
2022/01/21 04:33:34;;;;;;;5.68;1.02;;;;;;;3.84;73.81;102779.63;5073708;28;20063;-53
2022/01/21 04:36:04;;;;;;;6.20;1.85;;;;;;;3.89;73.47;102782.28;5074885;28;20056;-53
2022/01/21 04:38:32;;;;;;;6.45;1.33;;;;;;;3.94;73.64;102785.78;5077442;28;20068;-53
2022/01/21 04:41:16;;;;;;;9.60;1.23;;;;;;;3.96;73.70;102788.44;5077680;28;20060;-53
2022/01/21 04:49:16;;;;;;;6.63;1.30;;;;;;;3.92;74.46;102787.56;5077278;28;20056;-53
2022/01/21 04:52:02;;;;;;;9.52;1.40;;;;;;;3.94;75.00;102780.53;5077460;28;20168;-53
2022/01/21 04:54:31;;;;;;;8.18;1.88;;;;;;;3.95;75.28;102787.56;5077971;28;20056;-53
2022/01/21 04:57:00;;;;;;;12.20;1.50;;;;;;;3.95;76.18;102784.94;5078194;28;20052;-53
2022/01/21 04:59:28;;;;;;;13.60;2.33;;;;;;;3.79;75.81;102754.25;5077902;28;20064;-53
2022/01/21 05:01:56;;;;;;;10.88;1.80;;;;;;;4.04;76.51;102781.44;5077296;28;20401;-53
2022/01/21 05:04:25;;;;;;;7.00;1.10;;;;;;;3.96;77.25;102784.03;5077760;28;20057;-53
2022/01/21 05:06:55;;;;;;;3.05;1.00;;;;;;;3.77;78.43;102788.38;5077474;28;20052;-53
2022/01/21 05:09:29;;;;;;;7.50;1.60;;;;;;;3.62;79.17;102788.34;5078321;28;20135;-53
2022/01/21 05:11:59;;;;;;;9.45;1.83;;;;;;;3.43;80.54;102793.53;5078354;28;20056;-53
2022/01/21 05:14:41;;;;;;;6.97;1.00;;;;;;;3.33;81.73;102797.84;5077014;28;20415;-53
2022/01/21 05:17:11;;;;;;;;;;;;;;;3.28;82.54;102796.09;5077210;28;20059;-53
2022/01/21 05:19:39;;;;;;;5.05;1.30;;;;;;;3.24;82.68;102797.78;5077259;28;19920;-53
2022/01/21 05:22:09;;;;;;;8.98;1.30;;;;;;;3.32;82.66;102806.56;5078010;28;20059;-53
2022/01/21 05:24:37;;;;;;;8.00;1.50;;;;;;;3.43;82.76;102813.63;5076888;28;20060;-53
2022/01/21 05:27:06;;;;;;;6.60;1.27;;;;;;;3.48;82.70;102806.63;5077735;28;20079;-53
2022/01/21 05:29:36;;;;;;;10.40;1.23;;;;;;;3.57;83.03;102816.31;5077869;28;20056;-53
2022/01/21 05:32:06;;;;;;;10.70;1.77;;;;;;;3.60;82.73;102805.81;5076976;28;20069;-53
2022/01/21 05:34:34;;;;;;;13.88;1.88;;;;;;;3.59;82.95;102815.44;5076592;28;20064;-53
2022/01/21 05:37:09;;;;;;;10.70;1.60;;;;;;;3.58;83.03;102818.97;5077518;28;20088;-53
2022/01/21 05:39:37;;;;;;;17.10;1.50;;;;;;;3.64;82.79;102813.72;5076592;28;20512;-53
2022/01/21 05:42:07;;;;;;;7.05;1.95;;;;;;;3.69;83.13;102811.09;5076505;28;20056;-53
2022/01/21 05:47:21;;;;;;;5.60;1.13;;;;;;;3.72;83.18;102808.50;5075612;28;20063;-53
2022/01/21 05:49:54;;;;;;;11.60;1.85;;;;;;;3.77;83.23;102809.38;5077312;28;20114;-53
2022/01/21 05:52:33;;;;;;;9.70;1.42;;;;;;;3.68;83.27;102804.09;5076364;28;20061;-53
2022/01/21 05:55:01;;;;;;;6.88;1.48;;;;;;;3.80;83.34;102814.66;5077136;28;20083;-53
2022/01/21 05:57:30;;;;;;;8.68;2.05;;;;;;;3.83;83.28;102813.75;5076288;28;20107;-53
2022/01/21 05:59:58;;;;;;;6.43;1.25;;;;;;;3.85;83.10;102812.00;5075919;28;20063;-53
2022/01/21 06:02:27;;;;;;;11.05;2.25;;;;;;;3.81;83.31;102812.91;5076155;28;20496;-53
2022/01/21 06:04:55;;;;;;;6.95;2.03;;;;;;;3.81;83.47;102813.75;5077071;28;20082;-53
2022/01/21 06:07:25;;;;;;;14.23;2.42;;;;;;;3.82;83.39;102827.78;5076094;28;20091;-53
2022/01/21 06:09:53;;;;;;;11.00;2.70;;;;;;;3.83;83.37;102826.91;5076959;28;20053;-53
2022/01/21 06:12:21;;;;;;;15.82;2.28;;;;;;;3.80;83.92;102835.66;5076016;28;20068;-53
2022/01/21 06:14:50;;;;;;;11.52;1.42;;;;;;;3.74;84.11;102834.75;5075937;28;20500;-53
2022/01/21 06:17:18;;;;;;;13.13;1.83;;;;;;;3.80;84.15;102845.25;5076212;28;20048;-53
2022/01/21 06:19:46;;;;;;;8.98;1.75;;;;;;;3.78;83.53;102842.63;5076973;28;20060;-53
2022/01/21 06:22:15;;;;;;;11.13;1.65;;;;;;;3.74;83.74;102850.50;5076918;28;20059;-53
2022/01/21 06:24:45;;;;;;;8.65;1.50;;;;;;;3.78;82.59;102850.50;5075508;28;20060;-53
2022/01/21 06:27:13;;;;;;;7.90;1.50;;;;;;;3.80;82.25;102850.50;5076516;28;20068;-53
2022/01/21 06:29:41;;;;;;;13.77;1.83;;;;;;;3.80;82.27;102853.13;5075605;28;20064;-53
2022/01/21 06:32:10;;;;;;;8.63;1.38;;;;;;;3.80;82.33;102856.66;5075619;28;20056;-53
2022/01/21 06:34:38;;;;;;;10.05;1.45;;;;;;;3.81;82.44;102854.91;5076186;28;20056;-53
2022/01/21 06:37:06;;;;;;;8.75;1.58;;;;;;;3.80;82.68;102848.78;5075998;28;20053;-53
2022/01/21 06:39:34;;;;;;;9.68;1.60;;;;;;;3.77;82.42;102853.16;5075691;28;20052;-53
2022/01/21 06:42:04;;;;;;;13.10;1.98;;;;;;;3.80;82.34;102845.25;5075883;28;20053;-53
2022/01/21 06:44:33;;;;;;;8.02;1.50;;;;;;;3.82;82.36;102856.66;5075567;28;20522;-53
2022/01/21 06:47:01;;;;;;;8.18;2.75;;;;;;;3.77;82.53;102858.41;5075544;28;20056;-53
2022/01/21 06:49:30;;;;;;;13.82;1.60;;;;;;;3.78;82.59;102852.25;5075714;28;20090;-53
2022/01/21 06:51:58;;;;;;;13.27;1.73;;;;;;;3.81;82.74;102857.53;5075364;28;20067;-53
2022/01/21 06:54:26;;;;;;;18.42;1.88;;;;;;;3.78;83.07;102860.13;5074616;28;20501;-53
2022/01/21 06:56:54;;;;;;;13.20;2.30;;;;;;;3.80;83.05;102871.50;5075263;28;20063;-53
2022/01/21 06:59:24;;;;;;;14.13;1.70;;;;;;;3.73;82.25;102865.34;5074547;28;20518;-53
2022/01/21 07:01:52;;;;;;;8.85;1.80;;;;;;;3.71;82.20;102875.84;5074722;28;20064;-53
2022/01/21 07:04:20;;;;;;;10.07;1.75;;;;;;;3.72;82.30;102876.75;5074934;28;20386;-53
2022/01/21 07:06:48;;;;;;;17.88;2.00;;;;;;;3.81;81.97;102873.28;5075182;28;20060;-53
2022/01/21 07:09:17;;;;;;;7.97;1.58;;;;;;;3.80;82.50;102879.38;5075077;28;20056;-53
2022/01/21 07:11:45;;;;;;;11.13;1.73;;;;;;;3.78;82.34;102878.50;5074763;28;20072;-53
2022/01/21 07:14:13;;;;;;;13.45;1.60;;;;;;;3.87;82.30;102883.81;5074978;28;20061;-53
2022/01/21 07:16:43;;;;;;;12.13;1.90;;;;;;;3.91;82.71;102885.56;5075137;28;20056;-53
2022/01/21 07:19:11;;;;;;;6.28;1.27;;;;;;;3.90;82.62;102889.06;5075240;28;20063;-53
2022/01/21 07:21:39;;;;;;;12.90;2.00;;;;;;;3.94;82.83;102893.47;5074775;28;20083;-53
2022/01/21 07:24:08;;;;;;;6.28;1.58;;;;;;;3.97;83.01;102890.84;5075162;28;20412;-53
2022/01/21 07:26:36;;;;;;;7.55;1.73;;;;;;;3.97;82.85;102901.38;5074808;28;20052;-53
2022/01/21 07:29:05;;;;;;;10.93;2.90;;;;;;;3.98;83.16;102905.72;5074818;28;20064;-53
2022/01/21 07:31:33;;;;;;;7.28;1.60;;;;;;;4.00;83.14;102904.00;5074423;28;20063;-53
2022/01/21 07:34:06;;;;;;;10.10;1.90;;;;;;;4.00;83.15;102901.38;5074268;28;20095;-53
2022/01/21 07:36:34;;;;;;;14.30;2.20;;;;;;;4.01;83.24;102908.38;5074091;28;20416;-53
2022/01/21 07:39:04;;;;;;;10.02;1.83;;;;;;;4.01;83.07;102908.38;5075358;28;20122;-53
2022/01/21 07:41:32;;;;;;;12.45;1.75;;;;;;;4.02;83.35;102914.50;5074688;28;20056;-53
2022/01/21 07:44:00;;;;;;;8.55;2.08;;;;;;;4.03;83.54;102914.50;5075449;28;20052;-53
2022/01/21 07:46:29;;;;;;;6.90;2.05;;;;;;;4.01;83.56;102911.00;5074918;28;20118;-53
2022/01/21 07:48:59;;;;;;;7.10;2.05;;;;;;;3.99;83.64;102918.00;5074232;28;20052;-53
2022/01/21 07:51:29;;;;;;;7.78;1.83;;;;;;;3.89;83.80;102916.22;5074327;28;20060;-53
2022/01/21 07:53:57;;;;;;;7.38;2.13;;;;;;;3.85;84.12;102909.16;5074445;28;20052;-53
2022/01/21 07:56:26;;;;;;;14.65;2.55;;;;;;;3.72;85.19;102916.13;5073831;28;20052;-53
2022/01/21 07:58:54;;;;;;;12.63;2.17;;;;;;;3.66;85.27;102916.97;5074889;28;20067;-53
2022/01/21 08:01:23;;;;;;;12.35;2.03;;;;;;;3.62;86.16;102927.47;5074077;28;20092;-53
2022/01/21 08:03:52;;;;;;;7.45;1.92;;;;;;;3.63;86.06;102921.31;5074649;28;20102;-53
2022/01/21 08:06:20;;;;;;;9.50;3.33;;;;;;;3.65;86.06;102930.09;5074295;28;20496;-53
2022/01/21 08:08:50;;;;;;;13.65;1.90;;;;;;;3.59;86.63;102936.19;5074581;28;20052;-53
2022/01/21 08:11:18;;;;;;;9.10;1.60;;;;;;;3.54;87.09;102919.53;5074651;28;20056;-53
2022/01/21 08:13:46;;;;;;;11.00;1.60;;;;;;;3.56;86.83;102933.53;5074136;28;20063;-53
2022/01/21 08:16:15;;;;;;;7.63;1.67;;;;;;;3.47;86.66;102929.09;5073758;28;20056;-53
2022/01/21 08:18:43;;;;;;;14.50;2.53;;;;;;;3.47;87.25;102936.13;5074196;28;20056;-53
2022/01/21 08:21:18;;;;;;;11.43;1.80;;;;;;;3.47;87.47;102942.22;5074347;28;20053;-53
2022/01/21 08:23:46;;;;;;;13.07;1.55;;;;;;;3.53;88.13;102949.25;5073745;28;20139;-53
2022/01/21 08:26:19;;;;;;;13.02;2.42;;;;;;;3.63;87.78;102956.34;5075164;28;20057;-53
2022/01/21 08:28:48;;;;;;;9.38;1.65;;;;;;;3.76;87.87;102945.91;5074367;28;20511;-53
2022/01/21 08:31:16;;;;;;;12.63;2.20;;;;;;;3.91;87.77;102951.22;5074031;28;20068;-53
2022/01/21 08:33:44;;;;;;;8.98;1.70;;;;;;;4.02;87.63;102946.91;5074000;28;20060;-53
2022/01/21 08:36:13;;;;;;;6.82;1.80;;;;;;;4.06;86.72;102948.66;5074672;28;20381;-53
2022/01/21 08:38:41;;;;;;;11.90;2.03;;;;;;;4.15;85.71;102952.19;5073773;28;20063;-53
2022/01/21 08:41:09;;;;;;;11.85;2.05;;;;;;;4.31;85.73;102959.25;5074004;28;20056;-53
2022/01/21 08:43:39;;;;;;;18.90;3.53;;;;;;;4.39;83.71;102957.53;5073939;28;20056;-53
2022/01/21 08:46:07;;;;;;;9.18;2.10;;;;;;;4.63;83.63;102945.31;5074538;28;20061;-53
2022/01/21 08:48:36;;;;;;;9.82;1.70;;;;;;;5.00;83.93;102955.88;5073569;28;20096;-53
2022/01/21 08:51:09;;;;;;;14.45;2.65;;;;;;;5.35;79.98;102957.63;5074106;28;20060;-53
2022/01/21 08:53:38;;;;;;;14.85;2.30;;;;;;;5.57;77.18;102954.06;5073576;28;20066;-53
2022/01/21 08:56:08;;;;;;;11.68;2.30;;;;;;;5.74;76.30;102961.03;5074607;28;20087;-53
2022/01/21 08:58:36;;;;;;;9.38;1.73;;;;;;;5.77;74.81;102963.69;5073494;28;20063;-53
2022/01/21 09:01:06;;;;;;;14.85;2.03;;;;;;;5.65;74.92;102966.31;5073737;28;20412;-53
2022/01/21 09:03:34;;;;;;;15.57;2.55;;;;;;;5.64;75.49;102964.59;5073751;28;20423;-53
2022/01/21 09:06:03;;;;;;;13.63;2.72;;;;;;;5.55;75.67;102976.88;5073201;28;20504;-54
2022/01/21 09:08:32;;;;;;;11.98;1.95;;;;;;;5.49;76.06;102971.63;5073444;28;20056;-54
2022/01/21 09:11:01;;;;;;;10.48;2.67;;;;;;;5.38;75.18;102963.75;5073391;28;20056;-53
2022/01/21 09:13:31;;;;;;;13.27;2.28;;;;;;;5.30;76.70;102967.28;5073707;28;20056;-54
2022/01/21 09:16:00;;;;;;;15.27;2.45;;;;;;;5.27;76.44;102964.63;5073897;28;20060;-54
2022/01/21 09:18:44;;;;;;;10.52;2.67;;;;;;;5.24;75.78;102964.63;5073636;28;20135;-53
2022/01/21 09:21:30;;;;;;;10.52;1.98;;;;;;;5.32;76.19;102978.66;5073261;28;20575;-53
2022/01/21 09:23:59;;;;;;;8.65;2.00;;;;;;;5.29;75.16;102978.66;5076328;28;20053;-53
2022/01/21 09:26:27;;;;;;;8.25;2.00;;;;;;;5.37;75.56;102982.19;5076553;28;20067;-53
2022/01/21 09:28:57;;;;;;;12.93;2.95;;;;;;;5.27;75.82;102980.44;5076743;28;20135;-53
2022/01/21 09:31:26;;;;;;;13.02;2.72;;;;;;;5.25;75.97;102983.06;5076924;28;20087;-53
2022/01/21 09:34:15;;;;;;;16.42;2.30;;;;;;;5.24;76.46;102991.81;5077034;28;20466;-53
2022/01/21 09:36:44;;;;;;;19.63;2.65;;;;;;;5.23;76.67;102984.81;5076485;28;20515;-53
2022/01/21 09:39:13;;;;;;;8.27;1.80;;;;;;;5.30;76.21;102993.59;5077304;28;20386;-53
2022/01/21 09:41:43;;;;;;;8.00;1.88;;;;;;;4.94;75.65;102954.13;5077387;28;20058;-53
2022/01/21 09:44:13;;;;;;;11.82;2.05;;;;;;;5.09;75.42;102990.06;5076764;28;20053;-53
2022/01/21 09:46:45;;;;;;;14.50;2.03;;;;;;;5.11;76.41;102980.44;5076998;28;20087;-53
2022/01/21 09:49:26;;;;;;;13.38;2.17;;;;;;;5.13;77.26;102989.19;5077028;28;20415;-53
2022/01/21 09:51:58;;;;;;;9.85;2.60;;;;;;;5.31;77.50;102979.53;5076574;28;20562;-53
2022/01/21 09:54:28;;;;;;;17.00;3.20;;;;;;;5.56;77.68;102989.19;5076907;28;20059;-53
2022/01/21 09:56:58;;;;;;;10.68;3.05;;;;;;;5.74;74.88;102982.13;5076179;28;20052;-53
2022/01/21 09:59:28;;;;;;;14.10;2.92;;;;;;;6.11;73.95;102987.31;5076854;28;20130;-53
2022/01/21 10:01:58;;;;;;;18.27;4.18;;;;;;;5.89;73.16;102950.44;5076670;28;20052;-53
2022/01/21 10:04:28;;;;;;;11.43;2.30;;;;;;;6.36;72.64;102984.56;5076265;28;20059;-53
2022/01/21 10:06:59;;;;;;;15.88;4.43;;;;;;;6.70;72.44;102979.97;5076345;28;20427;-53
2022/01/21 10:09:27;;;;;;;14.70;3.65;;;;;;;6.98;70.98;102985.06;5076026;28;20063;-53
2022/01/21 10:11:57;;;;;;;11.85;3.35;;;;;;;7.17;69.37;102972.56;5076036;28;20508;-53
2022/01/21 10:14:26;;;;;;;17.35;3.85;;;;;;;6.93;67.87;102985.09;5076332;28;20072;-53
2022/01/21 10:16:56;;;;;;;12.25;3.00;;;;;;;6.91;68.34;102985.97;5076119;28;20060;-53
2022/01/21 10:19:25;;;;;;;11.77;2.92;;;;;;;6.81;68.32;102986.03;5076050;28;20063;-53
2022/01/21 10:22:04;;;;;;;9.90;2.90;;;;;;;6.87;68.75;102987.75;5075765;28;20471;-54
2022/01/21 10:24:35;;;;;;;15.25;2.63;;;;;;;6.83;69.13;103004.50;5075884;28;20420;-53
2022/01/21 10:27:03;;;;;;;12.57;3.10;;;;;;;6.79;69.12;102995.75;5076814;28;20083;-54
2022/01/21 10:29:39;;;;;;;21.55;3.50;;;;;;;7.03;68.88;102989.41;5076456;28;20092;-54
2022/01/21 10:32:08;;;;;;;11.07;2.53;;;;;;;7.43;69.18;102986.41;5076000;28;20057;-53
2022/01/21 10:34:40;;;;;;;13.77;3.72;;;;;;;7.78;67.97;102987.84;5075147;28;20140;-54
2022/01/21 10:37:27;;;;;;;11.18;2.97;;;;;;;8.02;65.23;102996.38;5076076;28;20052;-54
2022/01/21 10:40:00;;;;;;;17.55;2.88;;;;;;;7.95;64.07;102965.59;5075251;28;20052;-54
2022/01/21 10:42:30;;;;;;;12.65;3.17;;;;;;;8.25;64.73;102992.56;5075139;28;20052;-54
2022/01/21 10:44:59;;;;;;;7.57;2.47;;;;;;;8.46;62.99;102997.59;5075068;28;20060;-54
2022/01/21 10:47:29;;;;;;;16.15;3.35;;;;;;;8.31;63.25;102997.78;5075278;28;20060;-54
2022/01/21 10:50:07;;;;;;;23.35;3.10;;;;;;;8.35;64.20;102994.19;5075412;28;20439;-54
2022/01/21 10:52:39;;;;;;;18.83;3.15;;;;;;;8.21;63.88;102999.66;5075058;28;20064;-54
2022/01/21 10:55:26;;;;;;;13.63;3.35;;;;;;;8.15;64.86;102997.97;5074892;28;20111;-54
2022/01/21 10:58:06;;;;;;;16.90;2.80;;;;;;;8.05;64.28;103001.59;5075411;28;20064;-54
2022/01/21 11:00:35;;;;;;;10.60;2.47;;;;;;;7.95;64.40;102999.97;5076229;28;20063;-54
2022/01/21 11:03:11;;;;;;;15.48;4.90;;;;;;;7.74;63.32;103001.09;5075189;28;20135;-54
2022/01/21 11:05:43;;;;;;;10.95;2.63;;;;;;;7.57;64.49;102999.50;5074670;28;20109;-54
2022/01/21 11:08:14;;;;;;;13.23;2.00;;;;;;;7.43;63.45;102997.00;5075691;28;20060;-54
2022/01/21 11:10:48;;;;;;;10.27;1.98;;;;;;;7.31;61.85;102991.78;5075199;28;20071;-54
2022/01/21 11:13:40;;;;;;;9.45;1.90;;;;;;;7.32;62.21;102990.91;5074453;28;20053;-54
2022/01/21 11:16:13;;;;;;;9.35;1.77;;;;;;;7.34;62.55;102996.19;5075817;28;20052;-54
2022/01/21 11:19:08;;;;;;;12.55;1.92;;;;;;;7.46;63.01;102995.19;5074651;28;20044;-54
2022/01/21 11:21:41;;;;;;;8.93;1.80;;;;;;;7.17;63.83;102989.28;5074289;28;20056;-54
2022/01/21 11:24:13;;;;;;;9.30;2.08;;;;;;;7.38;64.36;102985.59;5075711;28;20408;-54
2022/01/21 11:26:41;;;;;;;8.40;1.80;;;;;;;7.75;63.20;102992.25;5074441;28;20056;-54
2022/01/21 11:29:11;;;;;;;10.10;2.58;;;;;;;8.10;60.70;102978.66;5074813;28;20063;-54
2022/01/21 11:31:39;;;;;;;10.32;2.13;;;;;;;8.12;58.66;102976.88;5074712;28;20064;-54
2022/01/21 11:34:11;;;;;;;7.90;2.17;;;;;;;7.92;58.70;102974.47;5075590;28;20104;-54
2022/01/21 11:36:39;;;;;;;6.93;1.52;;;;;;;8.08;60.01;102975.13;5074244;28;20136;-54
2022/01/21 11:39:08;;;;;;;12.55;2.25;;;;;;;8.07;59.39;102978.69;5074928;28;20056;-54
2022/01/21 11:41:39;;;;;;;10.27;1.92;;;;;;;7.85;60.36;102972.78;5074629;28;20087;-54
2022/01/21 11:44:08;;;;;;;12.45;1.88;;;;;;;7.95;61.05;102978.81;5074834;28;20057;-54
2022/01/21 11:47:00;;;;;;;9.98;1.92;;;;;;;7.96;61.28;102964.72;5073637;28;20056;-54
2022/01/21 11:49:30;;;;;;;9.15;1.83;;;;;;;8.03;59.71;102973.44;5074481;28;20061;-54
2022/01/21 11:52:14;;;;;;;8.95;1.90;;;;;;;8.03;59.86;102965.53;5073939;28;20052;-54
2022/01/21 11:54:43;;;;;;;7.72;1.80;;;;;;;8.22;59.76;102950.28;5074550;28;20500;-54
2022/01/21 11:57:13;;;;;;;11.52;2.22;;;;;;;8.64;58.66;102969.13;5074322;28;20063;-54
2022/01/21 11:59:51;;;;;;;10.90;1.73;;;;;;;8.53;59.10;102964.88;5073947;28;20068;-54
2022/01/21 12:02:25;;;;;;;8.10;1.10;;;;;;;8.57;57.90;102954.25;5074090;28;20384;-54
2022/01/21 12:04:55;;;;;;;10.13;1.67;;;;;;;8.40;58.13;102971.19;5073861;28;20056;-54
2022/01/21 12:07:57;;;;;;;8.52;1.63;;;;;;;8.55;58.74;102968.38;5074025;28;20075;-54
2022/01/21 12:10:34;;;;;;;6.88;1.50;;;;;;;8.71;59.36;102971.69;5073779;28;20538;-54
2022/01/21 12:13:18;;;;;;;7.57;1.38;;;;;;;8.69;59.16;102983.16;5074471;28;20052;-54
2022/01/21 12:16:06;;;;;;;6.75;1.50;;;;;;;8.61;59.15;102966.53;5073909;28;20060;-54
2022/01/21 12:21:55;;;;;;;7.90;2.00;;;;;;;8.56;58.62;102961.31;5072131;28;20060;-54
2022/01/21 12:24:50;;;;;;;6.90;2.45;;;;;;;8.90;58.03;102966.09;5075033;28;20057;-54
2022/01/21 12:27:18;;;;;;;11.00;2.35;;;;;;;8.97;57.41;102973.03;5073817;28;20056;-54
2022/01/21 12:29:48;;;;;;;10.80;1.80;;;;;;;8.67;57.37;102962.00;5074079;28;20052;-54